Time;durP1;ratioP1;P1;durP2;ratioP2;P2;SDS_P1;SDS_P2;PMS_P1;PMS_P2;Temp;Humidity;BMP_temperature;BMP_pressure;BME280_temperature;BME280_humidity;BME280_pressure;Samples;Min_cycle;Max_cycle;Signal;HPM_P1;HPM_P2
2022/09/13 00:01:25;;;;;;;;;;;18.40;99.90;;;;;;4986458;28;19926;-70
2022/09/13 00:03:52;;;;;;;;;;;18.40;99.90;;;;;;4990362;28;19926;-71
2022/09/13 00:06:19;;;;;;;;;;;18.30;99.90;;;;;;4988322;28;19933;-70
2022/09/13 00:08:46;;;;;;;;;;;18.40;99.90;;;;;;4989210;28;19947;-72
2022/09/13 00:11:15;;;;;;;;;;;18.40;99.90;;;;;;4986268;28;19932;-70
2022/09/13 00:13:41;;;;;;;;;;;18.40;99.90;;;;;;4987294;28;19926;-71
2022/09/13 00:16:10;;;;;;;;;;;18.40;99.90;;;;;;4986245;28;19932;-71
2022/09/13 00:18:38;;;;;;;;;;;18.50;99.90;;;;;;4981534;28;20435;-71
2022/09/13 00:21:07;;;;;;;;;;;18.50;99.90;;;;;;4975302;28;19995;-71
2022/09/13 00:23:33;;;;;;;;;;;18.50;99.90;;;;;;4988599;28;20361;-71
2022/09/13 00:26:07;;;;;;;;;;;18.50;99.90;;;;;;4988105;28;19926;-71
2022/09/13 00:28:34;;;;;;;;;;;18.60;99.90;;;;;;4986686;28;19926;-71
2022/09/13 00:31:01;;;;;;;;;;;18.50;99.90;;;;;;4988447;28;19932;-71
2022/09/13 00:33:28;;;;;;;;;;;18.60;99.90;;;;;;4985998;28;19932;-71
2022/09/13 00:35:56;;;;;;;;;;;18.60;99.90;;;;;;4987724;28;19948;-71
2022/09/13 00:38:22;;;;;;;;;;;18.60;99.90;;;;;;4988184;28;19933;-70
2022/09/13 00:40:49;;;;;;;;;;;18.70;99.90;;;;;;4985828;28;20340;-70
2022/09/13 00:43:17;;;;;;;;;;;18.60;99.90;;;;;;4985470;28;20012;-70
2022/09/13 00:45:44;;;;;;;;;;;18.50;99.90;;;;;;4982913;28;20373;-71
2022/09/13 00:48:15;;;;;;;;;;;18.40;99.90;;;;;;4987249;28;19925;-70
2022/09/13 00:50:43;;;;;;;;;;;18.30;99.90;;;;;;4992321;28;19926;-70
2022/09/13 00:53:13;;;;;;;;;;;18.30;99.90;;;;;;4986696;28;20347;-70
2022/09/13 00:55:42;;;;;;;;;;;18.30;99.90;;;;;;4982464;28;20400;-70
2022/09/13 00:58:12;;;;;;;;;;;18.30;99.90;;;;;;4984887;28;20377;-70
2022/09/13 01:00:40;;;;;;;;;;;18.20;99.90;;;;;;4981549;28;19926;-70
2022/09/13 01:03:10;;;;;;;;;;;18.20;99.90;;;;;;4984000;28;19929;-71
2022/09/13 01:05:37;;;;;;;;;;;18.30;99.90;;;;;;4987927;28;20020;-71
2022/09/13 01:08:09;;;;;;;;;;;18.30;99.90;;;;;;4988190;28;19937;-71
2022/09/13 01:10:39;;;;;;;;;;;18.30;99.90;;;;;;4996110;28;19929;-71
2022/09/13 01:13:13;;;;;;;;;;;18.30;99.90;;;;;;4982651;28;19929;-71
2022/09/13 01:15:40;;;;;;;;;;;18.20;99.90;;;;;;4985440;28;19925;-70
2022/09/13 01:18:07;;;;;;;;;;;18.20;99.90;;;;;;4987170;28;19926;-70
2022/09/13 01:20:40;;;;;;;;;;;18.20;99.90;;;;;;4986394;28;19930;-71
2022/09/13 01:23:17;;;;;;;;;;;18.10;99.90;;;;;;4985056;28;19925;-71
2022/09/13 01:26:01;;;;;;;;;;;18.10;99.90;;;;;;4982097;28;19932;-71
2022/09/13 01:28:46;;;;;;;;;;;18.00;99.90;;;;;;4989743;28;19926;-71
2022/09/13 01:31:18;;;;;;;;;;;18.00;99.90;;;;;;4988419;28;19932;-71
2022/09/13 01:33:52;;;;;;;;;;;18.00;99.90;;;;;;4986995;28;19926;-72
2022/09/13 01:36:31;;;;;;;;;;;18.00;99.90;;;;;;4984762;28;19933;-72
2022/09/13 01:39:00;;;;;;;;;;;18.10;99.90;;;;;;4986453;28;19934;-71
2022/09/13 01:41:44;;;;;;;;;;;18.10;99.90;;;;;;4985500;28;20292;-71
2022/09/13 01:44:15;;;;;;;;;;;18.10;99.90;;;;;;4986759;28;19926;-71
2022/09/13 01:46:46;;;;;;;;;;;18.20;99.90;;;;;;4987290;28;20353;-71
2022/09/13 01:49:17;;;;;;;;;;;18.20;99.90;;;;;;4987048;28;20388;-71
2022/09/13 01:51:47;;;;;;;;;;;18.10;99.90;;;;;;4988355;28;19927;-71
2022/09/13 01:54:17;;;;;;;;;;;18.20;99.90;;;;;;4988114;28;19933;-71
2022/09/13 01:56:49;;;;;;;;;;;18.20;99.90;;;;;;4986504;28;19933;-71
2022/09/13 01:59:18;;;;;;;;;;;18.10;99.90;;;;;;4986666;28;19933;-71
2022/09/13 02:01:49;;;;;;;;;;;18.20;99.90;;;;;;4989672;28;20293;-71
2022/09/13 02:04:17;;;;;;;;;;;18.10;99.90;;;;;;4986521;28;20542;-70
2022/09/13 02:06:46;;;;;;;;;;;18.10;99.90;;;;;;4985826;28;19941;-71
2022/09/13 02:09:15;;;;;;;;;;;18.00;99.90;;;;;;4992982;28;19936;-71
2022/09/13 02:11:43;;;;;;;;;;;17.90;99.90;;;;;;4984996;28;19926;-70
2022/09/13 02:14:12;;;;;;;;;;;17.80;99.90;;;;;;4986603;28;20298;-70
2022/09/13 02:16:41;;;;;;;;;;;17.80;99.90;;;;;;4984736;28;19973;-70
2022/09/13 02:19:12;;;;;;;;;;;17.80;99.90;;;;;;4987148;28;20513;-70
2022/09/13 02:21:42;;;;;;;;;;;17.80;99.90;;;;;;4988340;28;20384;-70
2022/09/13 02:24:11;;;;;;;;;;;17.80;99.90;;;;;;4985924;28;19945;-70
2022/09/13 02:26:39;;;;;;;;;;;17.80;99.90;;;;;;4986975;28;20257;-70
2022/09/13 02:29:08;;;;;;;;;;;17.70;99.90;;;;;;4984816;28;20392;-70
2022/09/13 02:31:36;;;;;;;;;;;17.70;99.90;;;;;;4984998;28;19926;-70
2022/09/13 02:34:05;;;;;;;;;;;17.70;99.90;;;;;;4985790;28;19933;-70
2022/09/13 02:36:36;;;;;;;;;;;17.70;99.90;;;;;;4980477;28;20392;-71
2022/09/13 02:39:05;;;;;;;;;;;17.70;99.90;;;;;;4977381;28;19930;-70
2022/09/13 02:41:35;;;;;;;;;;;17.70;99.90;;;;;;4987050;28;19926;-71
2022/09/13 02:44:05;;;;;;;;;;;17.70;99.90;;;;;;4987418;28;20561;-72
2022/09/13 02:46:39;;;;;;;;;;;17.70;99.90;;;;;;4985681;28;20122;-71
2022/09/13 02:49:11;;;;;;;;;;;17.70;99.90;;;;;;4993423;28;19926;-71
2022/09/13 02:51:44;;;;;;;;;;;17.70;99.90;;;;;;4981721;28;19934;-71
2022/09/13 02:54:18;;;;;;;;;;;17.70;99.90;;;;;;4986294;28;20391;-71
2022/09/13 02:56:49;;;;;;;;;;;17.70;99.90;;;;;;4988004;28;19949;-71
2022/09/13 02:59:17;;;;;;;;;;;17.70;99.90;;;;;;4987610;28;19932;-72
2022/09/13 03:01:46;;;;;;;;;;;17.60;99.90;;;;;;4986607;28;20319;-71
2022/09/13 03:04:13;;;;;;;;;;;17.60;99.90;;;;;;4987141;28;19948;-71
2022/09/13 03:06:41;;;;;;;;;;;17.60;99.90;;;;;;4996804;28;20702;-70
2022/09/13 03:09:08;;;;;;;;;;;17.70;99.90;;;;;;4993201;28;19926;-71
2022/09/13 03:11:39;;;;;;;;;;;17.60;99.90;;;;;;4984391;28;19932;-72
2022/09/13 03:14:14;;;;;;;;;;;17.70;99.90;;;;;;4986116;28;20012;-70
2022/09/13 03:16:49;;;;;;;;;;;17.70;99.90;;;;;;4985193;28;20384;-71
2022/09/13 03:19:28;;;;;;;;;;;17.70;99.90;;;;;;4983490;28;19969;-71
2022/09/13 03:22:03;;;;;;;;;;;17.70;99.90;;;;;;4977617;28;19925;-71
2022/09/13 03:24:36;;;;;;;;;;;17.70;99.90;;;;;;4985721;28;19925;-70
2022/09/13 03:27:09;;;;;;;;;;;17.70;99.90;;;;;;4983676;28;20277;-71
2022/09/13 03:29:40;;;;;;;;;;;17.70;99.90;;;;;;4988222;28;19925;-71
2022/09/13 03:32:12;;;;;;;;;;;17.70;99.90;;;;;;4987332;28;20315;-71
2022/09/13 03:34:42;;;;;;;;;;;17.70;99.90;;;;;;4991263;28;19926;-70
2022/09/13 03:37:14;;;;;;;;;;;17.70;99.90;;;;;;4993977;28;20024;-70
2022/09/13 03:39:42;;;;;;;;;;;17.80;99.90;;;;;;4991129;28;19926;-71
2022/09/13 03:42:13;;;;;;;;;;;17.80;99.90;;;;;;4981835;28;19933;-70
2022/09/13 03:44:41;;;;;;;;;;;17.80;99.90;;;;;;4989071;28;20283;-70
2022/09/13 03:47:08;;;;;;;;;;;17.80;99.90;;;;;;4996756;28;20388;-70
2022/09/13 03:49:38;;;;;;;;;;;17.80;99.90;;;;;;4992913;28;19932;-70
2022/09/13 03:52:05;;;;;;;;;;;17.80;99.90;;;;;;4989186;28;19925;-70
2022/09/13 03:54:36;;;;;;;;;;;17.80;99.90;;;;;;4987415;28;19926;-71
2022/09/13 03:57:06;;;;;;;;;;;17.80;99.90;;;;;;4990289;28;20530;-70
2022/09/13 03:59:35;;;;;;;;;;;17.80;99.90;;;;;;4988426;28;19979;-71
2022/09/13 04:02:02;;;;;;;;;;;17.80;99.90;;;;;;4985698;28;20484;-70
2022/09/13 04:04:28;;;;;;;;;;;17.90;99.90;;;;;;4984978;28;19926;-71
2022/09/13 04:06:56;;;;;;;;;;;17.80;99.90;;;;;;4987357;28;19934;-71
2022/09/13 04:09:22;;;;;;;;;;;17.80;99.90;;;;;;4993743;28;19926;-71
2022/09/13 04:11:50;;;;;;;;;;;17.80;99.90;;;;;;4984720;28;19983;-70
2022/09/13 04:14:17;;;;;;;;;;;17.80;99.90;;;;;;4979797;28;19930;-71
2022/09/13 04:16:43;;;;;;;;;;;17.80;99.90;;;;;;4985748;28;19933;-71
2022/09/13 04:19:10;;;;;;;;;;;17.70;99.90;;;;;;4996855;28;20001;-71
2022/09/13 04:21:37;;;;;;;;;;;17.70;99.90;;;;;;4988613;28;20303;-72
2022/09/13 04:24:04;;;;;;;;;;;17.80;99.90;;;;;;4987214;28;19932;-71
2022/09/13 04:26:30;;;;;;;;;;;17.70;99.90;;;;;;4987525;28;20003;-70
2022/09/13 04:28:58;;;;;;;;;;;17.80;99.90;;;;;;4984392;28;20273;-70
2022/09/13 04:31:25;;;;;;;;;;;17.80;99.90;;;;;;4986128;28;19973;-69
2022/09/13 04:33:53;;;;;;;;;;;17.80;99.90;;;;;;4986128;28;19932;-70
2022/09/13 04:36:20;;;;;;;;;;;17.80;99.90;;;;;;4993586;28;19933;-69
2022/09/13 04:38:47;;;;;;;;;;;17.80;99.90;;;;;;4994804;28;19941;-70
2022/09/13 04:41:14;;;;;;;;;;;17.80;99.90;;;;;;4986726;28;20012;-70
2022/09/13 04:43:41;;;;;;;;;;;17.80;99.90;;;;;;4989060;28;19926;-70
2022/09/13 04:46:09;;;;;;;;;;;17.80;99.90;;;;;;4987699;28;20447;-70
2022/09/13 04:48:35;;;;;;;;;;;17.90;99.90;;;;;;4988342;28;19926;-70
2022/09/13 04:51:03;;;;;;;;;;;17.80;99.90;;;;;;4985827;28;19933;-71
2022/09/13 04:53:30;;;;;;;;;;;17.80;99.90;;;;;;4990823;28;19926;-70
2022/09/13 04:56:00;;;;;;;;;;;17.80;99.90;;;;;;4986391;28;19926;-70
2022/09/13 04:58:26;;;;;;;;;;;17.80;99.90;;;;;;4987869;28;20403;-70
2022/09/13 05:00:55;;;;;;;;;;;17.70;99.90;;;;;;4979645;28;19937;-70
2022/09/13 05:03:23;;;;;;;;;;;17.60;99.90;;;;;;4966304;28;19930;-71
2022/09/13 05:05:50;;;;;;;;;;;17.50;99.90;;;;;;4985995;28;19926;-70
2022/09/13 05:08:17;;;;;;;;;;;17.60;99.90;;;;;;4997798;28;19926;-69
2022/09/13 05:10:43;;;;;;;;;;;17.50;99.90;;;;;;4984675;28;19993;-70
2022/09/13 05:13:10;;;;;;;;;;;17.50;99.90;;;;;;4988386;28;20391;-70
2022/09/13 05:15:36;;;;;;;;;;;17.50;99.90;;;;;;4988612;28;19932;-71
2022/09/13 05:18:03;;;;;;;;;;;17.60;99.90;;;;;;4991544;28;19936;-71
2022/09/13 05:20:31;;;;;;;;;;;17.70;99.90;;;;;;4985414;28;19932;-71
2022/09/13 05:22:58;;;;;;;;;;;17.60;99.90;;;;;;4980341;28;20296;-72
2022/09/13 05:25:24;;;;;;;;;;;17.60;99.90;;;;;;4985455;28;19925;-71
2022/09/13 05:27:51;;;;;;;;;;;17.60;99.90;;;;;;4984037;28;19925;-71
2022/09/13 05:30:18;;;;;;;;;;;17.60;99.90;;;;;;5000972;28;19926;-71
2022/09/13 05:32:44;;;;;;;;;;;17.60;99.90;;;;;;4997740;28;20321;-71
2022/09/13 05:35:12;;;;;;;;;;;17.70;99.90;;;;;;4996541;28;20039;-72
2022/09/13 05:37:40;;;;;;;;;;;17.60;99.90;;;;;;4995022;28;19938;-72
2022/09/13 05:40:07;;;;;;;;;;;17.60;99.90;;;;;;4992616;28;19949;-71
2022/09/13 05:42:34;;;;;;;;;;;17.60;99.90;;;;;;4987312;28;20285;-71
2022/09/13 05:45:01;;;;;;;;;;;17.70;99.90;;;;;;4978597;28;20605;-70
2022/09/13 05:47:27;;;;;;;;;;;17.80;99.90;;;;;;4979631;28;19929;-72
2022/09/13 05:49:54;;;;;;;;;;;17.80;99.90;;;;;;4988386;28;19929;-71
2022/09/13 05:52:21;;;;;;;;;;;17.80;99.90;;;;;;4979286;28;19925;-71
2022/09/13 05:54:49;;;;;;;;;;;17.90;99.90;;;;;;4984618;28;20028;-71
2022/09/13 05:57:15;;;;;;;;;;;17.90;99.90;;;;;;4985160;28;19933;-72
2022/09/13 05:59:42;;;;;;;;;;;18.00;99.90;;;;;;4993249;28;19997;-72
2022/09/13 06:02:09;;;;;;;;;;;17.90;99.90;;;;;;4991010;28;19930;-72
2022/09/13 06:04:36;;;;;;;;;;;18.00;99.90;;;;;;4989732;28;20592;-69
2022/09/13 06:07:03;;;;;;;;;;;18.00;99.90;;;;;;4988681;28;19979;-68
2022/09/13 06:09:30;;;;;;;;;;;18.00;99.90;;;;;;4999060;28;19933;-68
2022/09/13 06:11:58;;;;;;;;;;;18.00;99.90;;;;;;4990205;28;19995;-68
2022/09/13 06:14:24;;;;;;;;;;;18.00;99.90;;;;;;4992220;28;20372;-68
2022/09/13 06:16:51;;;;;;;;;;;18.00;99.90;;;;;;4982073;28;20040;-68
2022/09/13 06:19:18;;;;;;;;;;;18.00;99.90;;;;;;4987550;28;19929;-70
2022/09/13 06:21:44;;;;;;;;;;;18.10;99.90;;;;;;4986461;28;20381;-68
2022/09/13 06:24:11;;;;;;;;;;;18.20;99.90;;;;;;4988760;28;19932;-68
2022/09/13 06:26:38;;;;;;;;;;;18.20;99.90;;;;;;4986216;28;19950;-68
2022/09/13 06:29:06;;;;;;;;;;;18.20;99.90;;;;;;4998873;28;19933;-68
2022/09/13 06:31:32;;;;;;;;;;;18.30;99.90;;;;;;4978556;28;19932;-68
2022/09/13 06:34:01;;;;;;;;;;;18.30;99.90;;;;;;4984462;28;20020;-68
2022/09/13 06:36:28;;;;;;;;;;;18.40;99.90;;;;;;4984261;28;19930;-68
2022/09/13 06:38:55;;;;;;;;;;;18.40;99.90;;;;;;5005095;28;19925;-68
2022/09/13 06:41:23;;;;;;;;;;;18.50;99.90;;;;;;4982427;28;19977;-68
2022/09/13 06:43:53;;;;;;;;;;;18.50;99.90;;;;;;4996005;28;20306;-68
2022/09/13 06:46:24;;;;;;;;;;;18.50;99.90;;;;;;4985508;28;20016;-68
2022/09/13 06:48:51;;;;;;;;;;;18.60;99.90;;;;;;4992924;28;19936;-68
2022/09/13 06:51:19;;;;;;;;;;;18.70;99.90;;;;;;4988976;28;20020;-68
2022/09/13 06:53:47;;;;;;;;;;;18.80;99.90;;;;;;4982853;28;20356;-66
2022/09/13 06:56:14;;;;;;;;;;;18.80;99.90;;;;;;4991310;28;19934;-66
2022/09/13 06:58:42;;;;;;;;;;;19.00;99.90;;;;;;4987379;28;19929;-67
2022/09/13 07:01:10;;;;;;;;;;;19.10;99.90;;;;;;4982120;28;20419;-68
2022/09/13 07:03:38;;;;;;;;;;;19.30;99.90;;;;;;4986259;28;19933;-69
2022/09/13 07:06:09;;;;;;;;;;;19.50;99.90;;;;;;4987698;28;19926;-66
2022/09/13 07:08:35;;;;;;;;;;;19.60;99.90;;;;;;4994857;28;19946;-67
2022/09/13 07:11:02;;;;;;;;;;;19.80;99.90;;;;;;5002319;28;19926;-67
2022/09/13 07:13:29;;;;;;;;;;;19.90;99.90;;;;;;4987866;28;20406;-67
2022/09/13 07:15:56;;;;;;;;;;;20.00;99.90;;;;;;5001418;28;20398;-67
2022/09/13 07:18:22;;;;;;;;;;;20.10;99.90;;;;;;4990625;28;19942;-67
2022/09/13 07:20:50;;;;;;;;;;;20.10;99.90;;;;;;4993757;28;20383;-67
2022/09/13 07:23:17;;;;;;;;;;;20.30;99.90;;;;;;4987968;28;20296;-67
2022/09/13 07:25:44;;;;;;;;;;;20.40;99.90;;;;;;4985292;28;20060;-67
2022/09/13 07:28:10;;;;;;;;;;;20.60;99.90;;;;;;4988718;28;20438;-70
2022/09/13 07:30:38;;;;;;;;;;;20.70;99.90;;;;;;4988166;28;19929;-67
2022/09/13 07:33:04;;;;;;;;;;;20.70;99.90;;;;;;4992414;28;19926;-67
2022/09/13 07:35:31;;;;;;;;;;;20.70;99.90;;;;;;4991712;28;20274;-68
2022/09/13 07:37:59;;;;;;;;;;;20.90;99.90;;;;;;4988131;28;19933;-67
2022/09/13 07:40:25;;;;;;;;;;;21.10;99.90;;;;;;4995715;28;19948;-68
2022/09/13 07:42:52;;;;;;;;;;;21.20;99.90;;;;;;4989227;28;19925;-69
2022/09/13 07:45:19;;;;;;;;;;;21.60;99.90;;;;;;4991695;28;19932;-68
2022/09/13 07:47:47;;;;;;;;;;;22.00;99.90;;;;;;4990879;28;20027;-68
2022/09/13 07:50:14;;;;;;;;;;;22.10;99.90;;;;;;4998382;22;19945;-68
2022/09/13 07:52:41;;;;;;;;;;;22.50;99.90;;;;;;4961926;28;19940;-68
2022/09/13 07:55:09;;;;;;;;;;;23.60;99.90;;;;;;4967345;28;20229;-68
2022/09/13 07:57:36;;;;;;;;;;;24.80;99.90;;;;;;4963476;28;20296;-68
2022/09/13 08:00:04;;;;;;;;;;;26.60;97.20;;;;;;4963186;28;20060;-68
2022/09/13 08:02:31;;;;;;;;;;;27.60;93.70;;;;;;4967196;28;20390;-68
2022/09/13 08:04:57;;;;;;;;;;;28.70;91.00;;;;;;4962079;28;19925;-68
2022/09/13 08:07:24;;;;;;;;;;;30.00;85.10;;;;;;4959562;28;20021;-68
2022/09/13 08:09:51;;;;;;;;;;;29.40;98.20;;;;;;4961783;28;19926;-68
2022/09/13 08:12:19;;;;;;;;;;;30.40;96.70;;;;;;4962717;28;19926;-69
2022/09/13 08:14:46;;;;;;;;;;;31.30;91.70;;;;;;4954397;28;20033;-61
2022/09/13 08:17:12;;;;;;;;;;;30.20;95.90;;;;;;4967554;28;19934;-68
2022/09/13 08:19:39;;;;;;;;;;;30.40;97.20;;;;;;4966463;28;20411;-70
2022/09/13 08:22:05;;;;;;;;;;;29.10;99.90;;;;;;4960990;28;20029;-69
2022/09/13 08:24:32;;;;;;;;;;;27.20;99.90;;;;;;4960689;28;19926;-68
2022/09/13 08:26:59;;;;;;;;;;;26.20;99.90;;;;;;4964298;28;19933;-68
2022/09/13 08:29:27;;;;;;;;;;;26.10;99.90;;;;;;4959333;28;19948;-69
2022/09/13 08:31:53;;;;;;;;;;;26.10;99.90;;;;;;4962386;28;19926;-68
2022/09/13 08:34:20;;;;;;;;;;;27.00;99.90;;;;;;4961431;28;19926;-68
2022/09/13 08:36:47;;;;;;;;;;;27.90;99.90;;;;;;4965457;28;20163;-68
2022/09/13 08:39:13;;;;;;;;;;;30.10;99.90;;;;;;4961189;28;19934;-68
2022/09/13 08:41:41;;;;;;;;;;;;;;;;;;4960829;28;20016;-68
2022/09/13 08:44:07;;;;;;;;;;;;;;;;;;4964941;28;19938;-68
2022/09/13 08:46:34;;;;;;;;;;;;;;;;;;4962660;28;19933;-68
2022/09/13 08:49:01;;;;;;;;;;;;;;;;;;4961531;28;19933;-68
2022/09/13 08:51:29;;;;;;;;;;;;;;;;;;4967364;28;19926;-68
2022/09/13 08:53:56;;;;;;;;;;;;;;;;;;4965393;28;19927;-68
2022/09/13 08:56:23;;;;;;;;;;;;;;;;;;4957696;28;20010;-68
2022/09/13 08:58:50;;;;;;;;;;;;;;;;;;4962781;28;19965;-68
2022/09/13 09:01:22;;;;;;;;;;;26.00;99.90;;;;;;4962166;28;19936;-67
2022/09/13 09:03:52;;;;;;;;;;;25.50;99.90;;;;;;4970896;28;20420;-68
2022/09/13 09:06:21;;;;;;;;;;;25.70;99.90;;;;;;4967597;28;20028;-68
2022/09/13 09:08:49;;;;;;;;;;;25.80;99.90;;;;;;4963200;28;20270;-68
2022/09/13 09:11:21;;;;;;;;;;;26.00;99.90;;;;;;4964238;28;19937;-68
2022/09/13 09:13:51;;;;;;;;;;;25.90;99.90;;;;;;4963829;28;19926;-68
2022/09/13 09:16:28;;;;;;;;;;;26.20;99.90;;;;;;4960108;28;19934;-68
2022/09/13 09:18:56;;;;;;;;;;;27.00;99.90;;;;;;4961457;28;19926;-68
2022/09/13 09:21:23;;;;;;;;;;;27.40;99.90;;;;;;4965399;28;19970;-67
2022/09/13 09:23:51;;;;;;;;;;;27.10;99.90;;;;;;4953652;28;19926;-68
2022/09/13 09:26:19;;;;;;;;;;;26.90;99.90;;;;;;4955631;28;19986;-68
2022/09/13 09:28:47;;;;;;;;;;;27.40;99.90;;;;;;4978883;28;19944;-67
2022/09/13 09:31:16;;;;;;;;;;;26.90;99.90;;;;;;4960582;28;19936;-69
2022/09/13 09:33:53;;;;;;;;;;;25.60;99.90;;;;;;4976741;28;19927;-68
2022/09/13 09:36:25;;;;;;;;;;;25.60;99.90;;;;;;4958963;28;19934;-67
2022/09/13 09:38:52;;;;;;;;;;;25.30;99.90;;;;;;4960534;28;19989;-68
2022/09/13 09:41:24;;;;;;;;;;;24.90;99.90;;;;;;4971179;28;20028;-69
2022/09/13 09:43:55;;;;;;;;;;;25.80;99.90;;;;;;4968886;28;20238;-69
2022/09/13 09:46:26;;;;;;;;;;;25.20;99.90;;;;;;4976035;28;19930;-69
2022/09/13 09:48:54;;;;;;;;;;;25.00;99.90;;;;;;4960452;28;19926;-70
2022/09/13 09:51:23;;;;;;;;;;;25.00;99.90;;;;;;4969826;28;19933;-69
2022/09/13 09:53:54;;;;;;;;;;;25.50;99.90;;;;;;4974799;28;19979;-69
2022/09/13 09:56:22;;;;;;;;;;;26.30;99.90;;;;;;4962627;28;19954;-69
2022/09/13 09:58:50;;;;;;;;;;;24.90;99.90;;;;;;4957975;28;19930;-69
2022/09/13 10:01:19;;;;;;;;;;;24.10;99.90;;;;;;4954308;28;20348;-69
2022/09/13 10:03:50;;;;;;;;;;;24.10;99.90;;;;;;4957128;28;19930;-69
2022/09/13 10:06:21;;;;;;;;;;;23.90;99.90;;;;;;4958935;28;19941;-68
2022/09/13 10:08:54;;;;;;;;;;;24.00;99.90;;;;;;4957901;28;19930;-69
2022/09/13 10:11:21;;;;;;;;;;;23.60;99.90;;;;;;4958558;28;19949;-68
2022/09/13 10:14:01;;;;;;;;;;;23.70;99.90;;;;;;4959054;28;19938;-68
2022/09/13 10:16:28;;;;;;;;;;;23.50;99.90;;;;;;4950968;28;20303;-70
2022/09/13 10:19:15;;;;;;;;;;;23.80;99.90;;;;;;4954850;28;19934;-68
2022/09/13 10:21:43;;;;;;;;;;;23.70;99.90;;;;;;4962502;28;19941;-68
2022/09/13 10:24:17;;;;;;;;;;;23.60;99.90;;;;;;4957431;28;20389;-68
2022/09/13 10:26:43;;;;;;;;;;;23.90;99.90;;;;;;4961729;28;19950;-69
2022/09/13 10:29:14;;;;;;;;;;;23.90;99.90;;;;;;4969417;28;19926;-68
2022/09/13 10:31:42;;;;;;;;;;;23.80;99.90;;;;;;4955538;28;19956;-68
2022/09/13 10:34:13;;;;;;;;;;;23.70;99.90;;;;;;4959285;28;19934;-68
2022/09/13 10:36:50;;;;;;;;;;;23.90;99.90;;;;;;4960138;28;19934;-68
2022/09/13 10:39:19;;;;;;;;;;;24.40;99.90;;;;;;4968164;28;19930;-67
2022/09/13 10:41:50;;;;;;;;;;;24.30;99.90;;;;;;4980886;28;20242;-68
2022/09/13 10:44:38;;;;;;;;;;;24.80;99.90;;;;;;4965626;28;19933;-68
2022/09/13 10:47:07;;;;;;;;;;;24.40;99.90;;;;;;4964007;28;20014;-67
2022/09/13 10:49:37;;;;;;;;;;;24.70;99.90;;;;;;4960698;28;19932;-67
2022/09/13 10:52:20;;;;;;;;;;;25.10;99.90;;;;;;4993254;28;19930;-67
2022/09/13 10:54:48;;;;;;;;;;;25.70;99.90;;;;;;4958627;28;22175;-68
2022/09/13 10:57:28;;;;;;;;;;;25.90;99.90;;;;;;4957516;28;19926;-68
2022/09/13 10:59:55;;;;;;;;;;;25.00;99.90;;;;;;4975226;28;20010;-68
2022/09/13 11:02:34;;;;;;;;;;;24.60;99.90;;;;;;5004032;28;19928;-68
2022/09/13 11:05:19;;;;;;;;;;;25.00;99.90;;;;;;4959826;28;19964;-69
2022/09/13 11:07:50;;;;;;;;;;;25.60;99.90;;;;;;4966055;28;20392;-67
2022/09/13 11:10:21;;;;;;;;;;;24.70;99.90;;;;;;4963657;28;19930;-68
2022/09/13 11:12:53;;;;;;;;;;;24.70;99.90;;;;;;4962239;28;20401;-68
2022/09/13 11:15:27;;;;;;;;;;;25.30;99.90;;;;;;4960546;28;19934;-68
2022/09/13 11:18:03;;;;;;;;;;;25.30;99.90;;;;;;4966089;28;19926;-68
2022/09/13 11:20:37;;;;;;;;;;;25.00;99.90;;;;;;4967956;28;20037;-68
2022/09/13 11:23:11;;;;;;;;;;;25.00;99.90;;;;;;4966141;28;20411;-68
2022/09/13 11:25:43;;;;;;;;;;;24.80;99.90;;;;;;4967344;28;19930;-68
2022/09/13 11:28:17;;;;;;;;;;;24.90;99.90;;;;;;4959991;28;20365;-68
2022/09/13 11:30:52;;;;;;;;;;;25.30;99.90;;;;;;4969772;28;19926;-69
2022/09/13 11:33:30;;;;;;;;;;;25.50;99.90;;;;;;4965238;28;19968;-63
2022/09/13 11:36:18;;;;;;;;;;;25.80;99.90;;;;;;4970325;28;20308;-67
2022/09/13 11:38:50;;;;;;;;;;;25.70;99.90;;;;;;4981330;28;19932;-67
2022/09/13 11:41:27;;;;;;;;;;;25.10;99.90;;;;;;4973947;28;19933;-67
2022/09/13 11:43:59;;;;;;;;;;;25.30;99.90;;;;;;4961561;28;19934;-67
2022/09/13 11:46:31;;;;;;;;;;;25.50;99.90;;;;;;4960259;28;19926;-67
2022/09/13 11:49:05;;;;;;;;;;;25.30;99.90;;;;;;4961324;28;19930;-66
2022/09/13 11:51:39;;;;;;;;;;;25.50;99.90;;;;;;4975682;28;19934;-67
2022/09/13 11:54:13;;;;;;;;;;;26.00;99.90;;;;;;4978416;28;19930;-67
2022/09/13 11:56:42;;;;;;;;;;;25.50;99.90;;;;;;4978040;28;19938;-67
2022/09/13 11:59:15;;;;;;;;;;;25.20;99.90;;;;;;4961271;28;20025;-67
2022/09/13 12:01:45;;;;;;;;;;;25.30;99.90;;;;;;4967652;28;20446;-67
2022/09/13 12:04:15;;;;;;;;;;;25.10;99.90;;;;;;4968418;28;19926;-68
2022/09/13 12:06:43;;;;;;;;;;;25.30;99.90;;;;;;4962373;28;19932;-66
2022/09/13 12:09:12;;;;;;;;;;;25.80;99.90;;;;;;4954100;28;19926;-66
2022/09/13 12:11:43;;;;;;;;;;;26.30;99.90;;;;;;4966637;28;19937;-66
2022/09/13 12:14:12;;;;;;;;;;;26.40;99.90;;;;;;4967424;28;20450;-66
2022/09/13 12:16:40;;;;;;;;;;;26.60;99.90;;;;;;4963153;28;19931;-64
2022/09/13 12:19:12;;;;;;;;;;;26.00;99.90;;;;;;4960606;28;19926;-64
2022/09/13 12:21:40;;;;;;;;;;;25.50;99.90;;;;;;4965909;28;19934;-65
2022/09/13 12:24:11;;;;;;;;;;;25.10;99.90;;;;;;5051417;28;20504;-65
2022/09/13 12:26:41;;;;;;;;;;;25.00;99.90;;;;;;4972573;28;19941;-65
2022/09/13 12:29:14;;;;;;;;;;;25.10;99.90;;;;;;4956605;28;19938;-65
2022/09/13 12:31:41;;;;;;;;;;;25.10;99.90;;;;;;4960355;28;19925;-66
2022/09/13 12:34:10;;;;;;;;;;;25.30;99.90;;;;;;4959264;28;19934;-65
2022/09/13 12:36:54;;;;;;;;;;;25.50;99.90;;;;;;4961625;28;20068;-65
2022/09/13 12:39:32;;;;;;;;;;;25.70;99.90;;;;;;4952318;28;19937;-65
2022/09/13 12:42:09;;;;;;;;;;;25.30;99.90;;;;;;4964751;28;20487;-66
2022/09/13 12:44:48;;;;;;;;;;;25.30;99.90;;;;;;4966111;28;19926;-66
2022/09/13 12:47:34;;;;;;;;;;;25.10;99.90;;;;;;4972193;28;19965;-65
2022/09/13 12:50:09;;;;;;;;;;;24.80;99.90;;;;;;4961037;28;19930;-66
2022/09/13 12:52:40;;;;;;;;;;;24.90;99.90;;;;;;4958772;28;20584;-67
2022/09/13 12:55:25;;;;;;;;;;;24.90;99.90;;;;;;4954128;28;19933;-66
2022/09/13 12:57:55;;;;;;;;;;;24.80;99.90;;;;;;4994396;28;20430;-67
2022/09/13 13:00:24;;;;;;;;;;;24.60;99.90;;;;;;4953057;28;19930;-64
2022/09/13 13:02:52;;;;;;;;;;;24.60;99.90;;;;;;4971267;28;20368;-65
2022/09/13 13:05:22;;;;;;;;;;;24.60;99.90;;;;;;4966729;28;20449;-66
2022/09/13 13:07:52;;;;;;;;;;;24.80;99.90;;;;;;4952588;28;19945;-66
2022/09/13 13:10:26;;;;;;;;;;;24.80;99.90;;;;;;4963979;28;19981;-65
2022/09/13 13:12:53;;;;;;;;;;;24.60;99.90;;;;;;4952974;28;19934;-66
2022/09/13 13:15:42;;;;;;;;;;;24.60;99.90;;;;;;4959023;28;19971;-66
2022/09/13 13:18:23;;;;;;;;;;;24.50;99.90;;;;;;4971778;28;20013;-66
2022/09/13 13:21:22;;;;;;;;;;;24.50;99.90;;;;;;4965796;28;19934;-67
2022/09/13 13:23:48;;;;;;;;;;;24.50;99.90;;;;;;4956174;28;20418;-66
2022/09/13 13:26:30;;;;;;;;;;;24.30;99.90;;;;;;5009137;28;19926;-67
2022/09/13 13:29:15;;;;;;;;;;;24.10;99.90;;;;;;4963879;28;23415;-67
2022/09/13 13:31:43;;;;;;;;;;;24.10;99.90;;;;;;4958738;28;19926;-67
2022/09/13 13:34:29;;;;;;;;;;;24.20;99.90;;;;;;4953678;28;19995;-66
2022/09/13 13:36:59;;;;;;;;;;;24.10;99.90;;;;;;4984870;28;19930;-67
2022/09/13 13:39:33;;;;;;;;;;;24.00;99.90;;;;;;4969278;28;19932;-66
2022/09/13 13:42:01;;;;;;;;;;;23.90;99.90;;;;;;4958191;28;20010;-67
2022/09/13 13:44:47;;;;;;;;;;;23.80;99.90;;;;;;4981960;28;20400;-67
2022/09/13 13:47:32;;;;;;;;;;;23.70;99.90;;;;;;4950333;28;20002;-67
2022/09/13 13:50:09;;;;;;;;;;;23.70;99.90;;;;;;4993237;28;19976;-67
2022/09/13 13:52:38;;;;;;;;;;;24.00;99.90;;;;;;4958731;28;19934;-68
2022/09/13 13:55:19;;;;;;;;;;;23.90;99.90;;;;;;4964936;28;19987;-66
2022/09/13 13:57:52;;;;;;;;;;;23.90;99.90;;;;;;4955733;28;19933;-65
2022/09/13 14:00:20;;;;;;;;;;;24.00;99.90;;;;;;4954508;28;19930;-66
2022/09/13 14:02:52;;;;;;;;;;;23.90;99.90;;;;;;4957221;28;19926;-66
2022/09/13 14:05:22;;;;;;;;;;;23.80;99.90;;;;;;4962365;28;19934;-66
2022/09/13 14:08:05;;;;;;;;;;;23.70;99.90;;;;;;4954153;28;19937;-66
2022/09/13 14:10:37;;;;;;;;;;;23.80;99.90;;;;;;4964670;28;19926;-66
2022/09/13 14:13:19;;;;;;;;;;;23.80;99.90;;;;;;4956386;28;20393;-66
2022/09/13 14:15:51;;;;;;;;;;;23.90;99.90;;;;;;4960175;28;20021;-68
2022/09/13 14:18:33;;;;;;;;;;;23.80;99.90;;;;;;4969564;28;19927;-67
2022/09/13 14:21:01;;;;;;;;;;;23.80;99.90;;;;;;4955001;28;19927;-67
2022/09/13 14:23:29;;;;;;;;;;;23.70;99.90;;;;;;4965802;28;20296;-67
2022/09/13 14:25:57;;;;;;;;;;;23.70;99.90;;;;;;4961529;28;20026;-67
2022/09/13 14:28:24;;;;;;;;;;;23.60;99.90;;;;;;4961806;28;19929;-67
2022/09/13 14:30:55;;;;;;;;;;;23.60;99.90;;;;;;4962292;28;19981;-66
2022/09/13 14:33:25;;;;;;;;;;;23.60;99.90;;;;;;4959824;28;19931;-66
2022/09/13 14:35:57;;;;;;;;;;;23.60;99.90;;;;;;4952546;28;20389;-64
2022/09/13 14:38:29;;;;;;;;;;;23.40;99.90;;;;;;4956630;28;20362;-66